createdAt,value
2022-10-03T00:01:15.690Z,9.77
2022-10-03T00:03:53.833Z,6.67
2022-10-03T00:06:33.485Z,12.67
2022-10-03T00:09:27.164Z,5.03
2022-10-03T00:12:10.157Z,8.00
2022-10-03T00:14:45.786Z,7.33
2022-10-03T00:17:20.623Z,9.20
2022-10-03T00:19:58.554Z,8.33
2022-10-03T00:22:38.416Z,5.77
2022-10-03T00:25:22.885Z,8.13
2022-10-03T00:27:56.727Z,7.57
2022-10-03T00:30:25.555Z,5.40
2022-10-03T00:33:17.224Z,6.87
2022-10-03T00:36:02.849Z,7.47
2022-10-03T00:39:04.225Z,6.03
2022-10-03T00:41:55.621Z,9.70
2022-10-03T00:45:19.834Z,7.10
2022-10-03T00:48:13.732Z,9.17
2022-10-03T00:50:59.822Z,10.10
2022-10-03T00:53:56.824Z,6.30
2022-10-03T00:56:57.071Z,7.67
2022-10-03T00:59:40.318Z,6.60
2022-10-03T01:02:38.588Z,8.97
2022-10-03T01:05:16.294Z,8.67
2022-10-03T01:08:05.219Z,7.90
2022-10-03T01:10:41.253Z,7.10
2022-10-03T01:13:24.453Z,6.43
2022-10-03T01:16:03.035Z,9.13
2022-10-03T01:18:44.074Z,8.13
2022-10-03T01:21:22.465Z,7.00
2022-10-03T01:24:27.934Z,11.00
2022-10-03T01:27:02.853Z,8.13
2022-10-03T01:30:00.306Z,8.57
2022-10-03T01:32:35.557Z,6.90
2022-10-03T01:35:15.889Z,11.83
2022-10-03T01:37:52.069Z,9.03
2022-10-03T01:40:27.211Z,9.70
2022-10-03T01:43:05.168Z,11.23
2022-10-03T01:45:45.579Z,11.93
2022-10-03T01:48:20.106Z,10.50
2022-10-03T01:50:58.959Z,9.00
2022-10-03T01:53:35.016Z,11.50
2022-10-03T01:56:09.291Z,10.30
2022-10-03T01:58:49.758Z,7.30
2022-10-03T02:01:27.831Z,10.33
2022-10-03T02:04:04.299Z,9.27
2022-10-03T02:06:44.053Z,6.63
2022-10-03T02:09:21.937Z,6.80
2022-10-03T02:12:01.466Z,7.37
2022-10-03T02:14:35.503Z,9.20
2022-10-03T02:17:08.712Z,8.13
2022-10-03T02:19:47.404Z,9.50
2022-10-03T02:22:17.453Z,5.90
2022-10-03T02:24:55.482Z,8.47
2022-10-03T02:27:58.824Z,9.63
2022-10-03T02:30:37.160Z,7.90
2022-10-03T02:33:44.556Z,10.80
2022-10-03T02:36:38.686Z,9.77
2022-10-03T02:39:39.364Z,11.67
2022-10-03T02:42:32.706Z,12.53
2022-10-03T02:45:23.516Z,10.87
2022-10-03T02:48:31.147Z,11.90
2022-10-03T02:51:32.075Z,11.77
2022-10-03T02:54:30.960Z,15.50
2022-10-03T02:57:35.472Z,14.77
2022-10-03T03:00:21.957Z,14.47
2022-10-03T03:03:26.772Z,12.80
2022-10-03T03:06:32.394Z,13.93
2022-10-03T03:09:18.901Z,13.90
2022-10-03T03:12:10.788Z,10.40
2022-10-03T03:15:21.274Z,12.80
2022-10-03T03:17:58.855Z,13.27
2022-10-03T03:20:54.040Z,13.40
2022-10-03T03:23:37.090Z,10.10
2022-10-03T03:26:32.414Z,10.07
2022-10-03T03:29:10.248Z,10.70
2022-10-03T03:31:48.563Z,12.33
2022-10-03T03:34:23.964Z,9.97
2022-10-03T03:36:56.850Z,11.20
2022-10-03T03:39:51.060Z,12.60
2022-10-03T03:42:40.581Z,12.20
2022-10-03T03:45:16.285Z,39.97
2022-10-03T03:47:58.608Z,14.07
2022-10-03T03:50:40.290Z,12.40
2022-10-03T03:53:28.989Z,13.47
2022-10-03T03:56:11.993Z,14.10
2022-10-03T03:58:51.314Z,14.77
2022-10-03T04:01:45.940Z,12.17
2022-10-03T04:04:29.885Z,11.30
2022-10-03T04:07:08.907Z,14.07
2022-10-03T04:10:15.036Z,11.67
2022-10-03T04:12:58.810Z,11.40
2022-10-03T04:15:47.207Z,18.87
2022-10-03T04:18:42.511Z,17.90
2022-10-03T04:21:31.078Z,14.53
2022-10-03T04:24:20.797Z,13.23
2022-10-03T04:27:04.230Z,14.70
2022-10-03T04:29:44.219Z,33.87
2022-10-03T04:32:30.106Z,13.00
2022-10-03T04:35:13.812Z,14.07
2022-10-03T04:37:48.282Z,12.23
2022-10-03T04:40:31.207Z,13.70
2022-10-03T04:43:10.553Z,13.87
2022-10-03T04:45:55.566Z,12.00
2022-10-03T04:48:35.064Z,12.10
2022-10-03T04:51:13.765Z,14.60
2022-10-03T04:53:50.904Z,16.90
2022-10-03T04:56:39.352Z,14.83
2022-10-03T04:59:20.944Z,17.40
2022-10-03T05:01:54.278Z,15.87
2022-10-03T05:04:32.864Z,14.83
2022-10-03T05:07:12.243Z,15.33
2022-10-03T05:09:50.492Z,14.83
2022-10-03T05:12:27.973Z,16.13
2022-10-03T05:15:09.018Z,14.63
2022-10-03T05:17:47.285Z,15.90
2022-10-03T05:20:38.963Z,14.20
2022-10-03T05:23:20.293Z,16.90
2022-10-03T05:26:06.240Z,14.60
2022-10-03T05:28:53.436Z,15.87
2022-10-03T05:31:33.651Z,16.97
2022-10-03T05:34:13.717Z,12.20
2022-10-03T05:37:18.425Z,17.57
2022-10-03T05:39:57.521Z,15.83
2022-10-03T05:42:38.162Z,16.07
2022-10-03T05:45:21.617Z,16.27
2022-10-03T05:47:52.956Z,14.70
2022-10-03T05:50:36.107Z,13.60
2022-10-03T05:53:28.233Z,11.60
2022-10-03T05:56:08.382Z,16.30
2022-10-03T05:58:58.862Z,18.37
2022-10-03T06:01:59.178Z,22.23
2022-10-03T06:04:53.480Z,24.10
2022-10-03T06:07:27.394Z,27.47
2022-10-03T06:10:38.934Z,22.70
2022-10-03T06:13:14.741Z,24.67
2022-10-03T06:16:10.182Z,23.77
2022-10-03T06:19:08.318Z,25.50
2022-10-03T06:22:01.290Z,25.67
2022-10-03T06:25:09.497Z,29.80
2022-10-03T06:28:07.032Z,30.70
2022-10-03T06:30:54.733Z,26.77
2022-10-03T06:34:01.605Z,27.33
2022-10-03T06:36:51.022Z,26.33
2022-10-03T06:39:57.864Z,23.27
2022-10-03T06:42:44.853Z,25.73
2022-10-03T06:45:44.498Z,28.80
2022-10-03T06:48:56.875Z,28.97
2022-10-03T06:52:01.259Z,27.63
2022-10-03T06:55:04.421Z,25.80
2022-10-03T06:58:04.194Z,31.60
2022-10-03T07:00:46.536Z,29.80
2022-10-03T07:03:37.223Z,27.90
2022-10-03T07:06:29.912Z,25.53
2022-10-03T07:09:45.986Z,34.00
2022-10-03T07:13:07.427Z,35.47
2022-10-03T07:19:16.908Z,33.50
2022-10-03T07:22:32.044Z,27.50
2022-10-03T07:25:26.384Z,37.20
2022-10-03T07:28:38.247Z,26.73
2022-10-03T07:31:14.798Z,26.93
2022-10-03T07:34:06.582Z,31.80
2022-10-03T07:37:09.562Z,30.63
2022-10-03T07:40:05.743Z,37.07
2022-10-03T07:42:55.009Z,47.23
2022-10-03T07:45:39.375Z,29.27
2022-10-03T07:48:57.359Z,34.40
2022-10-03T07:51:32.880Z,32.80
2022-10-03T07:54:38.350Z,25.80
2022-10-03T07:57:38.076Z,34.03
2022-10-03T08:00:24.247Z,29.73
2022-10-03T08:03:22.445Z,30.33
2022-10-03T08:06:15.711Z,31.33
2022-10-03T08:09:22.261Z,33.63
2022-10-03T08:12:29.946Z,32.40
2022-10-03T08:15:04.841Z,33.47
2022-10-03T08:17:57.467Z,34.70
2022-10-03T08:20:56.259Z,22.40
2022-10-03T08:24:11.451Z,23.80
2022-10-03T08:26:56.374Z,27.87
2022-10-03T08:29:43.200Z,31.57
2022-10-03T08:32:34.820Z,26.87
2022-10-03T08:35:26.415Z,24.23
2022-10-03T08:38:24.937Z,21.27
2022-10-03T08:41:30.324Z,44.97
2022-10-03T08:44:30.222Z,36.63
2022-10-03T08:47:16.841Z,32.27
2022-10-03T08:50:19.877Z,33.20
2022-10-03T08:53:11.089Z,29.70
2022-10-03T08:56:00.782Z,25.20
2022-10-03T08:59:04.582Z,23.03
2022-10-03T09:01:47.241Z,21.03
2022-10-03T09:04:59.599Z,24.37
2022-10-03T09:07:48.444Z,18.90
2022-10-03T09:10:36.915Z,19.30
2022-10-03T09:13:22.126Z,19.90
2022-10-03T09:16:31.208Z,20.80
2022-10-03T09:19:28.036Z,20.13
2022-10-03T09:22:34.865Z,22.43
2022-10-03T09:25:31.431Z,20.70
2022-10-03T09:28:27.164Z,21.23
2022-10-03T09:31:08.616Z,20.50
2022-10-03T09:34:04.858Z,18.40
2022-10-03T09:37:19.035Z,18.47
2022-10-03T09:40:17.419Z,19.50
2022-10-03T09:43:09.639Z,18.00
2022-10-03T09:46:10.529Z,17.43
2022-10-03T09:49:00.583Z,18.43
2022-10-03T09:51:40.706Z,15.03
2022-10-03T09:54:35.357Z,15.07
2022-10-03T09:57:44.704Z,19.00
2022-10-03T10:00:23.402Z,15.10
2022-10-03T10:03:38.625Z,16.57
2022-10-03T10:06:42.487Z,16.43
2022-10-03T10:09:34.356Z,13.50
2022-10-03T10:12:37.462Z,24.13
2022-10-03T10:15:21.360Z,13.50
2022-10-03T10:18:17.284Z,14.33
2022-10-03T10:21:19.297Z,16.13
2022-10-03T10:24:04.304Z,14.00
2022-10-03T10:27:19.578Z,12.50
2022-10-03T10:30:10.674Z,13.73
2022-10-03T10:33:24.326Z,17.10
2022-10-03T10:36:23.034Z,16.90
2022-10-03T10:39:35.776Z,13.50
2022-10-03T10:42:40.856Z,14.93
2022-10-03T10:45:39.963Z,12.90
2022-10-03T10:48:45.430Z,14.03
2022-10-03T10:52:00.921Z,14.30
2022-10-03T10:55:03.402Z,11.07
2022-10-03T10:58:02.324Z,13.47
2022-10-03T11:00:52.134Z,13.33
2022-10-03T11:04:00.912Z,14.37
2022-10-03T11:09:53.662Z,13.17
2022-10-03T11:12:58.803Z,13.53
2022-10-03T11:16:07.188Z,15.00
2022-10-03T11:19:23.796Z,12.53
2022-10-03T11:22:32.807Z,13.67
2022-10-03T11:25:43.743Z,14.90
2022-10-03T11:28:47.610Z,10.63
2022-10-03T11:31:55.454Z,9.97
2022-10-03T11:35:13.436Z,17.30
2022-10-03T11:37:46.598Z,12.80
2022-10-03T11:40:31.299Z,13.67
2022-10-03T11:43:41.812Z,12.87
2022-10-03T11:46:23.704Z,7.90
2022-10-03T11:48:59.842Z,15.13
2022-10-03T11:51:39.849Z,12.13
2022-10-03T11:54:31.169Z,9.73
2022-10-03T11:57:07.502Z,10.80
2022-10-03T12:00:00.102Z,12.17
2022-10-03T12:02:44.583Z,8.43
2022-10-03T12:05:20.519Z,9.60
2022-10-03T12:08:19.060Z,10.00
2022-10-03T12:11:01.416Z,10.63
2022-10-03T12:13:35.840Z,7.43
2022-10-03T12:16:15.070Z,10.37
2022-10-03T12:19:02.998Z,7.30
2022-10-03T12:21:43.540Z,5.50
2022-10-03T12:24:28.973Z,7.77
2022-10-03T12:27:04.547Z,11.13
2022-10-03T12:29:37.094Z,8.33
2022-10-03T12:32:19.052Z,12.70
2022-10-03T12:34:55.152Z,10.93
2022-10-03T12:37:42.281Z,18.13
2022-10-03T12:40:20.234Z,11.10
2022-10-03T12:42:59.204Z,8.97
2022-10-03T12:45:34.003Z,9.70
2022-10-03T12:48:16.341Z,6.20
2022-10-03T12:50:48.391Z,10.67
2022-10-03T12:53:30.896Z,14.10
2022-10-03T12:56:07.699Z,9.37
2022-10-03T12:58:46.499Z,16.50
2022-10-03T13:01:26.013Z,12.90
2022-10-03T13:03:56.767Z,10.43
2022-10-03T13:07:03.412Z,10.13
2022-10-03T13:09:50.548Z,8.10
2022-10-03T13:12:34.223Z,10.37
2022-10-03T13:15:43.298Z,8.43
2022-10-03T13:18:28.227Z,12.10
2022-10-03T13:21:04.693Z,9.10
2022-10-03T13:23:44.076Z,9.57
2022-10-03T13:26:18.474Z,8.20
2022-10-03T13:29:14.995Z,9.27
2022-10-03T13:31:56.282Z,8.97
2022-10-03T13:34:29.125Z,7.37
2022-10-03T13:37:01.121Z,9.10
2022-10-03T13:39:38.892Z,9.40
2022-10-03T13:42:15.907Z,10.87
2022-10-03T13:44:54.397Z,9.90
2022-10-03T13:47:30.759Z,8.17
2022-10-03T13:50:02.291Z,10.77
2022-10-03T13:52:39.843Z,10.63
2022-10-03T13:55:19.434Z,9.53
2022-10-03T13:57:58.590Z,8.70
2022-10-03T14:00:31.892Z,7.50
2022-10-03T14:03:13.767Z,8.43
2022-10-03T14:05:59.382Z,9.67
2022-10-03T14:08:55.721Z,10.57
2022-10-03T14:11:26.970Z,11.80
2022-10-03T14:14:14.007Z,8.20
2022-10-03T14:16:48.744Z,8.80
2022-10-03T14:19:28.756Z,9.87
2022-10-03T14:22:10.441Z,10.30
2022-10-03T14:24:49.362Z,5.80
2022-10-03T14:27:44.572Z,7.37
2022-10-03T14:30:16.708Z,9.13
2022-10-03T14:33:10.808Z,9.33
2022-10-03T14:35:44.288Z,8.47
2022-10-03T14:38:48.168Z,6.07
2022-10-03T14:41:20.826Z,7.80
2022-10-03T14:43:56.023Z,11.57
2022-10-03T14:46:27.016Z,5.67
2022-10-03T14:48:59.734Z,7.40
2022-10-03T14:51:30.915Z,15.87
2022-10-03T14:54:02.706Z,6.00
2022-10-03T14:56:35.050Z,9.17
2022-10-03T14:59:12.110Z,12.37
2022-10-03T15:01:49.237Z,13.00
2022-10-03T15:04:28.104Z,7.77
2022-10-03T15:06:57.263Z,9.13
2022-10-03T15:09:35.421Z,12.13
2022-10-03T15:12:08.065Z,9.60
2022-10-03T15:14:39.190Z,11.07
2022-10-03T15:17:18.168Z,11.00
2022-10-03T15:19:54.848Z,6.43
2022-10-03T15:22:42.374Z,9.23
2022-10-03T15:25:17.857Z,8.30
2022-10-03T15:27:49.666Z,7.13
2022-10-03T15:30:22.304Z,11.33
2022-10-03T15:32:51.778Z,6.17
2022-10-03T15:35:26.254Z,8.10
2022-10-03T15:37:56.569Z,8.80
2022-10-03T15:40:31.358Z,5.60
2022-10-03T15:43:07.842Z,6.87
2022-10-03T15:45:38.053Z,7.30
2022-10-03T15:48:21.691Z,13.80
2022-10-03T15:50:56.964Z,8.27
2022-10-03T15:53:42.198Z,9.10
2022-10-03T15:56:15.158Z,10.30
2022-10-03T15:58:49.355Z,9.50
2022-10-03T16:01:22.786Z,10.57
2022-10-03T16:03:53.658Z,10.13
2022-10-03T16:06:26.856Z,6.47
2022-10-03T16:09:00.675Z,9.17
2022-10-03T16:11:33.770Z,8.67
2022-10-03T16:14:16.763Z,8.00
2022-10-03T16:16:52.069Z,7.07
2022-10-03T16:19:34.801Z,5.30
2022-10-03T16:22:14.706Z,11.20
2022-10-03T16:24:47.787Z,3.90
2022-10-03T16:27:19.557Z,13.93
2022-10-03T16:29:55.355Z,6.50
2022-10-03T16:32:26.648Z,8.67
2022-10-03T16:34:59.449Z,8.77
2022-10-03T16:37:29.872Z,8.30
2022-10-03T16:40:01.745Z,8.03
2022-10-03T16:42:40.691Z,11.93
2022-10-03T16:45:22.192Z,8.00
2022-10-03T16:48:12.187Z,5.93
2022-10-03T16:50:44.344Z,10.83
2022-10-03T16:53:14.114Z,8.03
2022-10-03T16:55:48.453Z,11.63
2022-10-03T16:58:21.971Z,9.80
2022-10-03T17:01:22.074Z,9.20
2022-10-03T17:03:47.934Z,11.90
2022-10-03T17:06:21.700Z,15.40
2022-10-03T17:08:54.126Z,17.63
2022-10-03T17:11:26.265Z,10.13
2022-10-03T17:13:56.738Z,11.70
2022-10-03T17:16:34.268Z,11.20
2022-10-03T17:19:20.369Z,8.57
2022-10-03T17:21:54.739Z,8.00
2022-10-03T17:24:36.069Z,11.20
2022-10-03T17:27:12.166Z,11.70
2022-10-03T17:29:47.714Z,9.70
2022-10-03T17:32:22.120Z,9.07
2022-10-03T17:34:56.623Z,12.10
2022-10-03T17:37:54.489Z,12.67
2022-10-03T17:40:32.011Z,6.20
2022-10-03T17:43:07.903Z,10.93
2022-10-03T17:45:44.584Z,10.20
2022-10-03T17:48:18.047Z,10.87
2022-10-03T17:50:56.378Z,9.60
2022-10-03T17:53:29.144Z,10.70
2022-10-03T17:56:01.605Z,10.20
2022-10-03T17:58:31.550Z,14.50
2022-10-03T18:01:08.217Z,11.43
2022-10-03T18:03:42.408Z,11.57
2022-10-03T18:06:36.175Z,15.23
2022-10-03T18:09:10.940Z,12.43
2022-10-03T18:11:42.327Z,13.10
2022-10-03T18:14:18.130Z,14.83
2022-10-03T18:16:53.253Z,13.13
2022-10-03T18:19:34.304Z,11.77
2022-10-03T18:22:15.109Z,15.10
2022-10-03T18:24:54.553Z,11.80
2022-10-03T18:27:46.258Z,16.33
2022-10-03T18:30:19.552Z,13.30
2022-10-03T18:32:48.861Z,13.50
2022-10-03T18:35:21.274Z,14.40
2022-10-03T18:38:02.657Z,14.70
2022-10-03T18:40:34.537Z,11.63
2022-10-03T18:43:06.422Z,12.83
2022-10-03T18:45:44.162Z,10.27
2022-10-03T18:48:19.173Z,13.60
2022-10-03T18:50:57.491Z,11.10
2022-10-03T18:53:33.662Z,9.70
2022-10-03T18:56:05.012Z,13.87
2022-10-03T18:58:37.767Z,11.07
2022-10-03T19:01:09.193Z,11.77
2022-10-03T19:03:40.608Z,18.43
2022-10-03T19:06:19.606Z,18.57
2022-10-03T19:08:52.222Z,13.83
2022-10-03T19:11:25.522Z,14.80
2022-10-03T19:14:01.514Z,13.90
2022-10-03T19:16:45.062Z,13.00
2022-10-03T19:19:19.343Z,15.03
2022-10-03T19:21:48.482Z,16.30
2022-10-03T19:24:30.735Z,16.10
2022-10-03T19:27:14.647Z,18.50
2022-10-03T19:29:46.621Z,13.93
2022-10-03T19:32:24.042Z,13.87
2022-10-03T19:34:53.989Z,16.23
2022-10-03T19:37:35.047Z,14.47
2022-10-03T19:40:02.945Z,17.90
2022-10-03T19:42:40.878Z,12.53
2022-10-03T19:45:14.157Z,12.40
2022-10-03T19:47:48.865Z,15.10
2022-10-03T19:50:21.210Z,13.33
2022-10-03T19:52:50.100Z,13.50
2022-10-03T19:55:22.147Z,18.67
2022-10-03T19:57:53.067Z,18.00
2022-10-03T20:00:29.274Z,16.20
2022-10-03T20:03:06.859Z,15.17
2022-10-03T20:05:40.601Z,15.70
2022-10-03T20:08:21.518Z,14.43
2022-10-03T20:10:59.574Z,16.57
2022-10-03T20:13:27.307Z,12.73
2022-10-03T20:15:58.664Z,18.53
2022-10-03T20:18:30.668Z,13.90
2022-10-03T20:21:00.452Z,15.07
2022-10-03T20:23:32.676Z,16.90
2022-10-03T20:26:06.060Z,14.73
2022-10-03T20:28:51.778Z,17.00
2022-10-03T20:31:26.267Z,14.70
2022-10-03T20:33:55.381Z,13.20
2022-10-03T20:36:26.407Z,12.83
2022-10-03T20:39:06.208Z,17.40
2022-10-03T20:41:46.686Z,14.17
2022-10-03T20:44:20.762Z,12.60
2022-10-03T20:46:52.451Z,16.30
2022-10-03T20:49:28.413Z,13.97
2022-10-03T20:51:58.274Z,14.90
2022-10-03T20:54:27.485Z,20.45
2022-10-03T20:56:59.721Z,16.57
2022-10-03T20:59:36.778Z,15.23
2022-10-03T21:02:15.012Z,15.23
2022-10-03T21:04:52.796Z,14.17
2022-10-03T21:07:32.547Z,11.67
2022-10-03T21:10:09.232Z,15.70
2022-10-03T21:12:43.518Z,16.53
2022-10-03T21:15:15.578Z,16.03
2022-10-03T21:17:46.549Z,19.00
2022-10-03T21:20:18.632Z,16.50
2022-10-03T21:22:51.261Z,15.67
2022-10-03T21:25:23.211Z,13.20
2022-10-03T21:27:55.559Z,16.27
2022-10-03T21:30:32.477Z,13.17
2022-10-03T21:33:09.942Z,15.50
2022-10-03T21:35:41.436Z,11.27
2022-10-03T21:38:20.160Z,18.05
2022-10-03T21:41:05.484Z,18.17
2022-10-03T21:43:52.642Z,18.10
2022-10-03T21:46:29.232Z,15.63
2022-10-03T21:49:20.527Z,18.95
2022-10-03T21:52:07.908Z,18.05
2022-10-03T21:54:41.863Z,21.37
2022-10-03T21:57:15.388Z,19.38
2022-10-03T21:59:59.397Z,19.25
2022-10-03T22:02:37.116Z,14.63
2022-10-03T22:05:19.476Z,15.15
2022-10-03T22:07:47.366Z,16.67
2022-10-03T22:10:21.822Z,22.77
2022-10-03T22:12:52.218Z,15.60
2022-10-03T22:15:28.651Z,15.80
2022-10-03T22:17:59.911Z,15.20
2022-10-03T22:20:31.047Z,17.05
2022-10-03T22:23:17.315Z,18.10
2022-10-03T22:25:55.733Z,17.25
2022-10-03T22:28:32.568Z,16.15
2022-10-03T22:31:08.473Z,15.07
2022-10-03T22:33:46.711Z,15.82
2022-10-03T22:36:19.549Z,18.05
2022-10-03T22:38:48.985Z,19.08
2022-10-03T22:41:22.650Z,14.45
2022-10-03T22:43:51.972Z,14.52
2022-10-03T22:46:26.046Z,19.13
2022-10-03T22:48:59.485Z,16.63
2022-10-03T22:51:28.875Z,15.48
2022-10-03T22:54:02.725Z,16.17
2022-10-03T22:56:39.007Z,17.38
2022-10-03T22:59:10.185Z,18.40
2022-10-03T23:01:42.034Z,20.45
2022-10-03T23:04:17.070Z,12.85
2022-10-03T23:09:40.734Z,18.92
2022-10-03T23:12:10.981Z,12.15
2022-10-03T23:14:42.846Z,16.95
2022-10-03T23:17:29.659Z,15.27
2022-10-03T23:20:05.932Z,12.35
2022-10-03T23:22:36.618Z,19.85
2022-10-03T23:25:09.750Z,16.10
2022-10-03T23:27:53.578Z,15.70
2022-10-03T23:30:53.844Z,14.80
2022-10-03T23:33:50.632Z,18.50
2022-10-03T23:36:21.419Z,17.30
2022-10-03T23:38:59.832Z,15.15
2022-10-03T23:41:43.491Z,14.75
2022-10-03T23:44:40.404Z,13.20
2022-10-03T23:47:13.617Z,18.88
2022-10-03T23:49:44.339Z,18.08
2022-10-03T23:52:17.517Z,17.08
2022-10-03T23:54:47.231Z,23.48
2022-10-03T23:57:18.459Z,18.13
2022-10-03T23:59:48.161Z,16.38
